Latest Weather Observations for Canberra

IDN60901

Issued at 1:21 am EST Monday 30 May 2016 (issued every 10 minutes, with the page automatically refreshed every 10 minutes)

About weather observations | Map of Canberra area stations | Latest observations for Canberra area | Other Formats
Station Details ID: 070351 Name: CANBERRA AIRPORT Lat: -35.31 Lon: 149.20 Height: 577.05 m
Data from the previous 72 hours. | See also: Recent months at Canberra
Date/Time
EST
Tmp

°C
App
Tmp
°C
Dew
Point
°C
Rel
Hum
%
Delta-T

°C
Wind Press
QNH
hPa
Press
MSL
hPa
Rain
since
9 am
mm
Dir
 
Spd
km/h
Gust
km/h
Spd
kts
Gust
kts
30/01:08am 1.3 -2.6 1.2 99 0.0 SE 11 13 6 7 1022.9 1023.2 0.0
30/01:00am 1.3 -2.2 1.2 99 0.0 SE 9 11 5 6 1022.9 1023.2 0.0
30/12:30am 0.4 -2.7 0.3 99 0.0 ESE 6 13 3 7 1022.7 1023.0 0.0
30/12:09am -1.4 -4.9 -1.5 99 0.0 ESE 7 9 4 5 1022.6 1022.9 0.0
30/12:00am -1.3 -5.2 -1.4 99 0.0 ESE 9 11 5 6 1022.6 1022.9 0.0
 
Date/Time
EST
Tmp

°C
App
Tmp
°C
Dew
Point
°C
Rel
Hum
%
Delta-T

°C
Wind Press
QNH
hPa
Press
MSL
hPa
Rain
since
9 am
mm
Dir
 
Spd
km/h
Gust
km/h
Spd
kts
Gust
kts
29/11:30pm -1.5 -4.9 -1.9 97 0.1 SSE 6 7 3 4 1022.5 1022.8 0.0
29/11:00pm -1.1 -4.4 -1.5 97 0.1 E 6 7 3 4 1022.4 1022.6 0.0
29/10:30pm -0.7 -4.9 -1.0 98 0.1 SE 11 11 6 6 1022.3 1022.5 0.0
29/10:00pm 0.3 -3.0 0.0 98 0.1 E 7 9 4 5 1022.2 1022.4 0.0
29/09:30pm 1.9 -1.3 1.0 94 0.4 N 7 11 4 6 1021.9 1022.1 0.0
29/09:00pm 2.1 -1.0 1.1 93 0.4 NE 7 9 4 5 1021.7 1021.9 0.0
29/08:30pm 2.2 -1.4 0.7 90 0.6 ENE 9 11 5 6 1021.4 1021.7 0.0
29/08:00pm 3.1 -0.1 1.0 86 0.8 NE 7 9 4 5 1021.1 1021.4 0.0
29/07:30pm 3.7 -0.6 1.3 84 1.0 NNE 13 15 7 8 1020.6 1020.8 0.0
29/07:00pm 4.7 -0.2 1.9 82 1.2 NNE 17 19 9 10 1020.2 1020.4 0.0
29/06:30pm 5.3 0.0 2.0 79 1.4 N 19 26 10 14 1019.7 1020.0 0.0
29/06:00pm 6.0 0.5 2.1 76 1.6 NNE 20 28 11 15 1019.4 1019.6 0.0
29/05:30pm 6.4 1.5 1.9 73 1.9 N 17 19 9 10 1019.0 1019.2 0.0
29/05:00pm 7.8 2.3 2.1 67 2.4 N 20 28 11 15 1018.6 1018.8 0.0
29/04:30pm 9.0 2.8 2.3 63 2.9 NNW 24 30 13 16 1018.3 1018.5 0.0
29/04:00pm 10.2 4.7 1.8 56 3.6 N 20 26 11 14 1017.8 1018.0 0.0
29/03:30pm 11.1 4.9 1.9 53 4.0 NNW 24 32 13 17 1017.5 1017.7 0.0
29/03:00pm 11.8 5.6 2.3 52 4.2 NNW 24 30 13 16 1017.4 1017.6 0.0
29/02:30pm 11.7 5.6 2.5 53 4.1 N 24 30 13 16 1017.2 1017.4 0.0
29/02:00pm 11.4 4.5 2.4 54 4.0 N 28 35 15 19 1017.1 1017.3 0.0
29/01:30pm 11.8 5.7 2.8 54 4.1 N 24 35 13 19 1017.0 1017.2 0.0
29/01:00pm 11.1 5.8 3.2 58 3.6 NNW 20 28 11 15 1017.0 1017.2 0.0
29/12:30pm 10.8 6.1 3.1 59 3.5 NNW 17 26 9 14 1017.3 1017.5 0.0
29/12:00pm 10.4 5.1 3.2 61 3.2 NW 20 26 11 14 1017.5 1017.7 0.0
29/11:30am 9.2 6.6 4.0 70 2.4 NNW 7 11 4 6 1017.8 1018.0 0.0
29/11:00am 8.2 5.7 3.9 74 1.9 W 6 9 3 5 1018.1 1018.3 0.0
29/10:30am 5.8 2.7 3.6 86 1.0 SSW 9 13 5 7 1018.4 1018.6 0.0
29/10:10am 5.0 2.3 3.7 91 0.6 SSW 7 11 4 6 1018.5 1018.7 0.0
29/10:00am 4.3 1.5 3.4 94 0.4 SSW 7 11 4 6 1018.5 1018.7 0.0
29/09:41am 3.9 1.1 3.0 94 0.4 SSW 7 9 4 5 1018.3 1018.5 0.0
29/09:30am 4.6 2.0 4.2 97 0.2 SSW 7 9 4 5 1018.2 1018.4 0.0
29/09:18am 3.7 1.0 3.6 99 0.0 SSE 7 9 4 5 1018.2 1018.4 0.0
29/09:10am 2.8 -0.1 2.7 99 0.0 S 7 9 4 5 1018.2 1018.4 0.0
29/09:00am 2.1 -0.9 2.0 99 0.0 S 7 9 4 5 1018.2 1018.4 0.0
29/08:52am 1.6 -0.5 1.5 99 0.0 SSE 2 7 1 4 1018.2 1018.4 0.0
29/08:30am 0.5 -1.4 0.4 99 0.0 CALM 0 0 0 0 1018.1 1018.3 0.0
29/08:00am -0.6 -4.0 -0.7 99 0.0 NNW 7 7 4 4 1017.7 1017.9 0.0
29/07:58am -0.7 -4.1 -0.8 99 0.0 NNW 7 7 4 4 1017.7 1017.9 0.0
29/07:30am -1.1 -3.3 -1.2 99 0.0 CALM 0 0 0 0 1017.4 1017.6 0.0
29/07:00am -1.9 -4.2 -2.0 99 -0.1 CALM 0 0 0 0 1017.1 1017.3 0.0
29/06:30am -2.8 -5.6 -2.9 99 -0.1 ESE 2 7 1 4 1016.8 1017.0 0.0
29/06:29am -2.9 -5.3 -3.0 99 -0.1 CALM 0 7 0 4 1016.8 1017.0 0.0
29/06:00am -3.9 -6.8 -4.2 98 -0.1 N 2 6 1 3 1016.3 1016.4 0.0
29/05:30am -3.0 -5.8 -3.1 99 -0.1 N 2 9 1 5 1015.9 1016.1 0.0
29/05:21am -2.7 -5.1 -2.8 99 -0.1 CALM 0 0 0 0 1015.9 1016.1 0.0
29/05:09am -3.0 -5.4 -3.1 99 -0.1 CALM 0 0 0 0 1016.0 1016.2 0.0
29/05:03am -2.9 -5.3 -3.0 99 -0.1 CALM 0 0 0 0 1015.9 1016.1 0.0
29/05:00am -2.9 -5.3 -3.0 99 -0.1 CALM 0 0 0 0 1015.9 1016.1 0.0
29/04:52am -2.9 -5.3 -3.0 99 -0.1 CALM 0 0 0 0 1015.8 1016.0 0.0
29/04:51am -2.8 -5.2 -2.9 99 -0.1 CALM 0 0 0 0 1015.8 1016.0 0.0
29/04:34am -2.2 -4.5 -2.3 99 -0.1 CALM 0 0 0 0 1015.5 1015.7 0.0
29/04:32am -2.0 -4.3 -2.1 99 -0.1 CALM 0 0 0 0 1015.5 1015.7 0.0
29/04:30am -2.1 -4.4 -2.2 99 -0.1 CALM 0 0 0 0 1015.5 1015.7 0.0
29/04:21am -2.4 -4.7 -2.5 99 -0.1 CALM 0 0 0 0 1015.5 1015.7 0.0
29/04:19am -2.4 -4.7 -2.5 99 -0.1 CALM 0 0 0 0 1015.5 1015.7 0.0
29/04:10am -2.2 -4.5 -2.3 99 -0.1 CALM 0 0 0 0 1015.6 1015.8 0.0
29/04:00am -2.3 -4.6 -2.4 99 -0.1 CALM 0 0 0 0 1015.5 1015.7 0.0
29/03:30am -2.4 -4.7 -2.7 98 0.0 CALM 0 0 0 0 1015.3 1015.5 0.0
29/03:28am -2.3 -4.6 -2.4 99 -0.1 CALM 0 0 0 0 1015.2 1015.4 0.0
29/03:00am -1.8 -5.4 -1.9 99 0.0 SE 7 9 4 5 1015.0 1015.1 0.0
29/02:51am -2.4 -6.1 -2.7 98 0.0 SE 7 9 4 5 1015.0 1015.1 0.0
29/02:30am -1.5 -3.7 -1.8 98 0.0 CALM 0 0 0 0 1015.0 1015.1 0.0
29/02:00am -0.7 -2.8 -0.8 99 0.0 CALM 0 0 0 0 1014.6 1014.7 0.0
29/01:30am -0.7 -2.8 -0.8 99 0.0 CALM 0 6 0 3 1014.4 1014.5 0.0
29/01:00am -1.0 -4.9 -1.3 98 0.1 SSE 9 11 5 6 1014.1 1014.3 0.0
29/12:30am -0.3 -3.5 -0.6 98 0.1 SSE 6 9 3 5 1013.9 1014.1 0.0
29/12:00am -0.3 -4.1 -0.7 97 0.1 SSE 9 11 5 6 1013.6 1013.8 0.0
 
Date/Time
EST
Tmp

°C
App
Tmp
°C
Dew
Point
°C
Rel
Hum
%
Delta-T

°C
Wind Press
QNH
hPa
Press
MSL
hPa
Rain
since
9 am
mm
Dir
 
Spd
km/h
Gust
km/h
Spd
kts
Gust
kts
28/11:30pm -0.1 -3.5 -0.5 97 0.1 SE 7 9 4 5 1013.5 1013.6 0.0
28/11:00pm 0.5 -1.5 -0.4 94 0.3 CALM 0 7 0 4 1013.4 1013.5 0.0
28/10:30pm 1.0 -0.9 0.3 95 0.3 CALM 0 0 0 0 1013.3 1013.4 0.0
28/10:00pm 1.4 -1.8 0.5 94 0.3 ENE 7 9 4 5 1013.2 1013.3 0.0
28/09:30pm 2.0 -1.9 1.4 96 0.2 E 11 11 6 6 1013.1 1013.2 0.0
28/09:00pm 2.4 -0.7 1.1 91 0.5 E 7 11 4 6 1012.8 1012.9 0.0
28/08:30pm 4.6 1.8 2.9 89 0.7 NE 7 9 4 5 1012.7 1012.8 0.0
28/08:00pm 5.4 1.1 3.3 86 0.9 WNW 15 19 8 10 1012.5 1012.6 0.0
28/07:30pm 5.9 1.7 3.6 85 1.0 NW 15 19 8 10 1011.9 1012.0 0.0
28/07:00pm 6.2 1.5 3.4 82 1.2 NW 17 19 9 10 1011.6 1011.7 0.0
28/06:30pm 7.0 1.8 3.8 80 1.4 NW 20 24 11 13 1011.0 1011.1 0.0
28/06:00pm 7.5 2.6 3.9 78 1.6 NW 19 22 10 12 1010.4 1010.5 0.0
28/05:30pm 7.9 3.8 4.3 78 1.6 NW 15 20 8 11 1009.6 1009.7 0.0
28/05:00pm 8.9 4.8 4.5 74 2.0 NW 15 20 8 11 1008.9 1008.9 0.0
28/04:30pm 10.3 5.4 4.0 65 2.9 WNW 19 26 10 14 1008.3 1008.4 0.0
28/04:00pm 11.8 7.4 4.8 62 3.3 NW 17 24 9 13 1007.9 1008.0 0.0
28/03:30pm 9.9 6.9 5.9 76 1.9 NE 11 15 6 8 1007.9 1008.0 0.0
28/03:00pm 9.9 6.1 5.7 75 2.0 N 15 19 8 10 1007.7 1007.8 0.0
28/02:30pm 10.2 6.0 5.8 74 2.1 NNW 17 19 9 10 1007.2 1007.2 0.0
28/02:00pm 10.2 6.4 5.6 73 2.2 NW 15 22 8 12 1007.1 1007.1 0.0
28/01:30pm 9.3 5.3 5.1 75 2.0 NNW 15 19 8 10 1006.7 1006.8 0.0
28/01:00pm 10.5 7.0 5.5 71 2.4 NW 13 15 7 8 1006.7 1006.8 0.0
28/12:30pm 8.2 4.9 4.8 79 1.6 N 11 15 6 8 1006.7 1006.8 0.0
28/12:00pm 7.2 3.8 4.2 81 1.3 N 11 15 6 8 1007.0 1007.0 0.0
28/11:30am 6.8 5.0 3.4 79 1.5 N 2 7 1 4 1007.2 1007.2 0.0
28/11:00am 6.4 4.3 3.7 83 1.2 SW 4 7 2 4 1007.5 1007.5 0.0
28/10:30am 5.8 4.3 3.1 83 1.2 CALM 0 2 0 1 1007.6 1007.6 0.0
28/10:00am 5.2 2.4 3.2 87 0.9 N 7 9 4 5 1007.5 1007.5 0.0
28/09:30am 5.0 2.3 2.5 84 1.1 ENE 6 7 3 4 1007.4 1007.4 0.0
28/09:00am 4.4 1.0 2.1 85 1.0 ESE 9 11 5 6 1007.3 1007.3 0.0
28/08:50am 4.1 0.7 1.8 85 0.9 SE 9 11 5 6 1007.4 1007.4 0.0
28/08:30am 4.0 0.5 1.5 84 1.0 SE 9 11 5 6 1007.5 1007.5 0.0
28/08:00am 3.5 -0.8 1.2 85 0.9 SE 13 15 7 8 1007.6 1007.6 0.0
28/07:30am 3.2 -1.1 1.1 86 0.8 SE 13 20 7 11 1007.5 1007.5 0.0
28/07:00am 3.2 -0.2 1.6 89 0.6 SE 9 13 5 7 1007.5 1007.5 0.0
28/06:30am 3.1 -0.4 1.5 89 0.6 SSE 9 11 5 6 1007.2 1007.2 0.0
28/06:00am 3.2 0.1 1.4 88 0.7 SSE 7 9 4 5 1007.0 1007.0 0.0
28/05:30am 3.3 0.3 1.8 90 0.6 SSE 7 9 4 5 1006.8 1006.9 0.0
28/05:00am 3.6 0.6 2.1 90 0.6 SSE 7 11 4 6 1007.0 1007.0 0.0
28/04:30am 4.3 1.0 2.7 89 0.7 ESE 9 11 5 6 1007.0 1007.0 0.0
28/04:00am 3.9 0.6 2.4 90 0.6 ESE 9 11 5 6 1007.1 1007.1 0.0
28/03:30am 3.6 0.2 2.1 90 0.6 SE 9 13 5 7 1007.1 1007.1 0.0
28/03:00am 3.4 0.7 2.4 93 0.4 NNW 6 7 3 4 1007.2 1007.2 0.0
28/02:30am 3.0 -0.5 1.1 87 0.8 NNW 9 13 5 7 1007.4 1007.4 0.0
28/02:00am 3.4 0.2 1.0 84 1.0 NE 7 11 4 6 1007.8 1007.9 0.0
28/01:30am 4.0 -0.2 1.7 85 0.9 NE 13 15 7 8 1008.2 1008.3 0.0
28/01:00am 3.9 -1.1 1.6 85 0.9 NNE 17 26 9 14 1008.3 1008.4 0.0
28/12:30am 3.7 -0.9 1.4 85 0.9 N 15 17 8 9 1008.1 1008.2 0.0
28/12:00am 4.8 -1.4 2.0 82 1.2 NNW 24 28 13 15 1008.5 1008.6 0.0
 
Date/Time
EST
Tmp

°C
App
Tmp
°C
Dew
Point
°C
Rel
Hum
%
Delta-T

°C
Wind Press
QNH
hPa
Press
MSL
hPa
Rain
since
9 am
mm
Dir
 
Spd
km/h
Gust
km/h
Spd
kts
Gust
kts
27/11:30pm 4.0 -0.7 1.2 82 1.1 N 15 17 8 9 1008.8 1008.8 0.0
27/11:00pm 4.1 -0.2 0.8 79 1.3 NNW 13 17 7 9 1008.8 1008.8 0.0
27/10:30pm 5.2 0.2 1.3 76 1.6 NNW 17 20 9 11 1008.8 1008.8 0.0
27/10:00pm 5.8 -0.5 1.3 73 1.9 NW 24 30 13 16 1008.4 1008.5 0.0
27/09:30pm 6.2 0.6 1.1 70 2.1 NW 20 26 11 14 1008.3 1008.4 0.0
27/09:00pm 6.4 0.8 1.3 70 2.1 NW 20 26 11 14 1008.1 1008.2 0.0
27/08:30pm 7.0 1.4 0.9 65 2.5 WNW 20 28 11 15 1007.9 1008.0 0.0
27/08:00pm 7.6 0.4 1.0 63 2.8 WNW 28 35 15 19 1007.6 1007.6 0.0
27/07:30pm 6.7 0.7 1.0 67 2.4 NW 22 30 12 16 1007.5 1007.5 0.0
27/07:00pm 7.2 1.7 0.9 64 2.6 NW 19 26 10 14 1007.3 1007.3 0.0
27/06:30pm 7.8 1.8 1.0 62 2.8 WNW 22 30 12 16 1006.8 1006.9 0.0
27/06:00pm 8.1 3.0 1.0 61 3.0 WNW 17 26 9 14 1006.7 1006.8 0.0
27/05:30pm 8.3 3.3 1.5 62 2.9 WNW 17 24 9 13 1006.2 1006.3 0.0
27/05:00pm 8.8 3.2 1.2 59 3.2 W 20 32 11 17 1005.7 1005.7 0.0
27/04:30pm 9.6 4.0 1.3 56 3.5 W 20 32 11 17 1005.3 1005.3 0.0
27/04:00pm 10.5 3.8 1.3 53 4.0 W 26 39 14 21 1004.8 1004.9 0.0
27/03:30pm 10.6 3.5 1.4 53 4.0 WNW 28 37 15 20 1004.5 1004.5 0.0
27/03:00pm 11.3 3.8 1.5 51 4.3 WNW 30 41 16 22 1004.1 1004.1 0.0
27/02:30pm 11.7 3.8 1.1 48 4.6 WNW 32 43 17 23 1003.9 1003.9 0.0
27/02:00pm 11.2 3.2 1.5 51 4.3 WNW 33 48 18 26 1003.5 1003.5 0.0
27/01:30pm 11.7 3.3 1.6 50 4.4 WNW 35 50 19 27 1003.6 1003.6 0.0
27/01:13pm 11.4 3.5 1.1 49 4.5 W 32 52 17 28 1003.5 1003.5 0.0
27/01:00pm 11.5 3.6 0.9 48 4.6 WNW 32 44 17 24 1003.5 1003.5 0.0
27/12:30pm 11.4 4.3 1.4 50 4.4 W 28 41 15 22 1003.7 1003.7 0.0
27/12:00pm 11.0 3.5 1.3 51 4.2 W 30 39 16 21 1004.0 1004.0 0.0
27/11:30am 9.8 2.6 0.7 53 3.8 WNW 28 41 15 22 1004.3 1004.3 0.0
27/11:00am 9.8 3.1 1.2 55 3.7 WNW 26 37 14 20 1004.6 1004.6 0.0
27/10:30am 9.6 2.9 1.5 57 3.5 WNW 26 39 14 21 1004.7 1004.8 0.0
27/10:00am 10.5 3.5 2.1 56 3.7 NW 28 41 15 22 1004.4 1004.4 0.0
27/09:38am 9.4 1.6 1.6 58 3.4 NW 32 50 17 27 1004.4 1004.4 0.0
27/09:30am 9.0 2.0 1.7 60 3.1 NW 28 41 15 22 1004.5 1004.5 0.0
27/09:00am 8.7 2.4 1.4 60 3.1 NW 24 35 13 19 1004.5 1004.5 3.8
27/08:30am 8.9 3.6 1.6 60 3.1 WNW 19 33 10 18 1004.3 1004.3 3.8
27/08:00am 8.0 2.4 1.2 62 2.9 WNW 20 32 11 17 1003.9 1003.9 3.8
27/07:30am 7.5 0.4 1.1 64 2.7 WNW 28 41 15 22 1003.5 1003.5 3.8
27/07:00am 7.3 -0.2 1.4 66 2.5 WNW 30 37 16 20 1003.1 1003.1 3.8
27/06:30am 7.3 -0.1 1.6 67 2.4 WNW 30 39 16 21 1003.0 1003.0 3.8
27/06:00am 7.6 -0.2 1.7 66 2.5 WNW 32 39 17 21 1002.9 1002.9 3.8
27/05:30am 7.8 0.1 2.1 67 2.4 WNW 32 44 17 24 1002.6 1002.6 3.8
27/05:00am 7.5 -0.2 2.4 70 2.2 WNW 32 39 17 21 1002.7 1002.7 3.8
27/04:30am 7.7 2.0 3.0 72 2.1 WNW 22 32 12 17 1002.8 1002.8 3.8
27/04:00am 8.3 1.0 2.5 67 2.5 WNW 30 41 16 22 1002.5 1002.5 3.8
27/03:30am 8.1 1.7 3.2 71 2.2 WNW 26 33 14 18 1002.6 1002.6 3.8
27/03:00am 8.6 3.0 3.4 70 2.3 NW 22 32 12 17 1002.5 1002.5 3.8
27/02:30am 9.0 3.4 3.6 69 2.4 WNW 22 30 12 16 1002.8 1002.8 3.8
27/02:00am 8.6 3.6 4.4 75 1.9 NW 20 28 11 15 1002.6 1002.6 3.8
27/01:30am 8.8 3.9 4.2 73 2.1 WNW 19 26 10 14 1002.3 1002.3 3.8

Latest Capital City Observations: Canberra | Sydney | Melbourne | Brisbane | Adelaide | Perth | Hobart | Darwin

Other Formats:

Comma delimited format used in spreadsheet applications
http://www.bom.gov.au/fwo/IDN60903/IDN60903.94926.axf

JavaScript Object Notation format (JSON) in row-major order
http://www.bom.gov.au/fwo/IDN60903/IDN60903.94926.json